createdAt,value
2022-12-17T00:01:26.965Z,32.90
2022-12-17T00:04:12.448Z,30.37
2022-12-17T00:06:57.676Z,33.93
2022-12-17T00:09:48.600Z,33.27
2022-12-17T00:12:35.226Z,37.63
2022-12-17T00:15:21.015Z,39.30
2022-12-17T00:18:07.374Z,32.17
2022-12-17T00:20:52.901Z,35.43
2022-12-17T00:23:39.770Z,35.00
2022-12-17T00:26:24.877Z,31.97
2022-12-17T00:29:10.083Z,31.93
2022-12-17T00:31:55.464Z,36.17
2022-12-17T00:34:43.444Z,30.47
2022-12-17T00:37:29.004Z,36.90
2022-12-17T00:40:14.355Z,34.17
2022-12-17T00:42:59.786Z,31.17
2022-12-17T00:45:45.234Z,32.27
2022-12-17T00:48:30.624Z,31.10
2022-12-17T00:51:17.051Z,30.07
2022-12-17T00:54:02.463Z,34.30
2022-12-17T00:56:47.920Z,31.70
2022-12-17T00:59:34.228Z,30.33
2022-12-17T01:02:21.979Z,31.07
2022-12-17T01:05:07.669Z,35.73
2022-12-17T01:07:54.697Z,36.37
2022-12-17T01:10:46.740Z,31.40
2022-12-17T01:13:32.685Z,30.87
2022-12-17T01:16:21.985Z,34.37
2022-12-17T01:19:07.208Z,32.43
2022-12-17T01:21:52.501Z,32.53
2022-12-17T01:24:39.163Z,32.33
2022-12-17T01:27:24.766Z,32.90
2022-12-17T01:30:10.256Z,33.37
2022-12-17T01:32:55.909Z,32.73
2022-12-17T01:35:41.825Z,34.47
2022-12-17T01:38:29.814Z,32.63
2022-12-17T01:41:16.560Z,28.20
2022-12-17T01:44:01.690Z,36.30
2022-12-17T01:46:51.178Z,32.00
2022-12-17T01:49:39.284Z,31.07
2022-12-17T01:52:30.587Z,32.43
2022-12-17T01:55:15.730Z,29.73
2022-12-17T01:58:02.412Z,31.60
2022-12-17T02:00:47.968Z,29.97
2022-12-17T02:03:34.412Z,32.67
2022-12-17T02:06:25.781Z,33.77
2022-12-17T02:09:21.134Z,36.10
2022-12-17T02:12:14.631Z,37.10
2022-12-17T02:15:05.814Z,36.17
2022-12-17T02:17:56.818Z,36.60
2022-12-17T02:20:49.059Z,35.20
2022-12-17T02:23:46.704Z,36.27
2022-12-17T02:26:35.684Z,35.93
2022-12-17T02:29:25.466Z,36.37
2022-12-17T02:32:11.956Z,35.70
2022-12-17T02:35:03.724Z,29.27
2022-12-17T02:37:51.546Z,33.93
2022-12-17T02:40:38.995Z,33.23
2022-12-17T02:43:25.783Z,31.93
2022-12-17T02:46:15.554Z,33.13
2022-12-17T02:49:01.285Z,34.33
2022-12-17T02:52:01.682Z,34.47
2022-12-17T02:54:48.305Z,35.17
2022-12-17T02:57:33.687Z,39.83
2022-12-17T03:00:19.152Z,33.13
2022-12-17T03:03:05.689Z,34.93
2022-12-17T03:05:56.157Z,38.70
2022-12-17T03:08:41.533Z,30.23
2022-12-17T03:11:27.026Z,30.80
2022-12-17T03:14:12.562Z,32.07
2022-12-17T03:16:57.756Z,34.40
2022-12-17T03:19:44.548Z,32.07
2022-12-17T03:22:29.951Z,29.47
2022-12-17T03:25:15.318Z,43.67
2022-12-17T03:28:00.756Z,54.53
2022-12-17T03:30:49.130Z,48.17
2022-12-17T03:33:35.064Z,39.43
2022-12-17T03:36:18.667Z,34.50
2022-12-17T03:39:15.519Z,34.53
2022-12-17T03:42:00.854Z,26.50
2022-12-17T03:44:46.335Z,27.20
2022-12-17T03:47:44.547Z,27.50
2022-12-17T03:50:29.916Z,25.17
2022-12-17T03:53:18.147Z,29.17
2022-12-17T03:56:03.422Z,27.97
2022-12-17T03:58:54.017Z,29.53
2022-12-17T04:01:39.646Z,30.03
2022-12-17T04:04:25.000Z,29.20
2022-12-17T04:07:10.347Z,25.40
2022-12-17T04:09:57.204Z,23.57
2022-12-17T04:12:42.476Z,27.83
2022-12-17T04:15:28.379Z,26.60
2022-12-17T04:18:14.146Z,31.73
2022-12-17T04:20:59.601Z,21.00
2022-12-17T04:23:45.037Z,30.83
2022-12-17T04:26:31.721Z,23.33
2022-12-17T04:29:17.286Z,20.63
2022-12-17T04:32:02.659Z,17.77
2022-12-17T04:34:47.985Z,22.13
2022-12-17T04:37:41.835Z,18.70
2022-12-17T04:40:29.138Z,22.80
2022-12-17T04:43:15.953Z,25.00
2022-12-17T04:46:01.375Z,23.70
2022-12-17T04:48:46.847Z,20.73
2022-12-17T04:51:32.099Z,22.43
2022-12-17T04:54:17.591Z,20.60
2022-12-17T04:57:03.621Z,17.97
2022-12-17T04:59:50.242Z,17.30
2022-12-17T05:02:40.919Z,20.20
2022-12-17T05:05:28.207Z,19.53
2022-12-17T05:08:14.047Z,21.20
2022-12-17T05:10:59.415Z,17.03
2022-12-17T05:13:44.868Z,19.30
2022-12-17T05:16:31.805Z,21.63
2022-12-17T05:19:17.080Z,21.03
2022-12-17T05:22:07.822Z,20.53
2022-12-17T05:24:53.242Z,19.73
2022-12-17T05:27:38.316Z,17.00
2022-12-17T05:30:24.451Z,21.70
2022-12-17T05:33:20.385Z,19.40
2022-12-17T05:36:05.835Z,19.83
2022-12-17T05:38:51.750Z,17.50
2022-12-17T05:41:36.916Z,17.43
2022-12-17T05:44:22.229Z,17.03
2022-12-17T05:47:07.639Z,20.83
2022-12-17T05:49:54.178Z,18.57
2022-12-17T05:52:41.632Z,19.77
2022-12-17T05:55:27.599Z,18.00
2022-12-17T05:58:20.696Z,18.07
2022-12-17T06:01:06.049Z,18.47
2022-12-17T06:03:51.531Z,25.00
2022-12-17T06:06:38.037Z,18.93
2022-12-17T06:09:23.272Z,18.77
2022-12-17T06:12:08.629Z,20.77
2022-12-17T06:14:54.133Z,20.93
2022-12-17T06:17:39.498Z,17.43
2022-12-17T06:20:26.155Z,16.60
2022-12-17T06:23:19.962Z,16.67
2022-12-17T06:26:05.226Z,16.40
2022-12-17T06:28:50.695Z,20.03
2022-12-17T06:31:35.934Z,16.60
2022-12-17T06:34:21.041Z,20.93
2022-12-17T06:37:06.201Z,18.10
2022-12-17T06:39:49.191Z,17.77
2022-12-17T06:42:34.303Z,18.37
2022-12-17T06:45:19.608Z,20.83
2022-12-17T06:48:05.080Z,17.43
2022-12-17T06:51:01.849Z,15.37
2022-12-17T06:53:47.139Z,17.17
2022-12-17T06:56:33.869Z,15.63
2022-12-17T06:59:19.249Z,20.40
2022-12-17T07:02:16.061Z,20.63
2022-12-17T07:05:12.861Z,21.40
2022-12-17T07:07:58.002Z,26.00
2022-12-17T07:10:43.387Z,20.97
2022-12-17T07:13:30.095Z,16.07
2022-12-17T07:16:14.687Z,20.47
2022-12-17T07:19:00.227Z,19.50
2022-12-17T07:21:45.559Z,19.73
2022-12-17T07:24:31.074Z,19.73
2022-12-17T07:27:16.365Z,19.83
2022-12-17T07:30:03.140Z,17.13
2022-12-17T07:32:48.603Z,17.87
2022-12-17T07:35:33.870Z,15.00
2022-12-17T07:38:20.010Z,15.50
2022-12-17T07:41:05.482Z,14.77
2022-12-17T07:43:53.131Z,14.90
2022-12-17T07:46:55.028Z,15.43
2022-12-17T07:49:39.867Z,20.37
2022-12-17T07:52:25.152Z,17.37
2022-12-17T07:55:15.409Z,17.40
2022-12-17T07:58:03.386Z,17.63
2022-12-17T08:00:49.567Z,17.73
2022-12-17T08:03:36.931Z,17.07
2022-12-17T08:06:23.016Z,17.00
2022-12-17T08:09:08.373Z,16.83
2022-12-17T08:11:53.651Z,14.50
2022-12-17T08:14:39.244Z,15.10
2022-12-17T08:17:24.625Z,14.57
2022-12-17T08:20:11.298Z,18.87
2022-12-17T08:22:57.194Z,15.07
2022-12-17T08:25:42.741Z,16.80
2022-12-17T08:31:34.011Z,18.67
2022-12-17T08:34:19.563Z,16.67
2022-12-17T08:37:06.275Z,19.43
2022-12-17T08:39:51.467Z,16.87
2022-12-17T08:42:36.854Z,15.47
2022-12-17T08:45:22.765Z,15.43
2022-12-17T08:48:07.886Z,14.43
2022-12-17T08:50:53.265Z,20.67
2022-12-17T08:53:40.120Z,17.37
2022-12-17T08:56:22.370Z,15.20
2022-12-17T08:59:07.721Z,13.67
2022-12-17T09:01:53.240Z,16.27
2022-12-17T09:04:38.474Z,14.50
2022-12-17T09:07:23.959Z,19.70
2022-12-17T09:10:13.083Z,16.23
2022-12-17T09:13:02.767Z,21.07
2022-12-17T09:15:53.180Z,16.43
2022-12-17T09:18:39.337Z,19.33
2022-12-17T09:21:25.777Z,15.93
2022-12-17T09:24:11.598Z,14.50
2022-12-17T09:26:58.561Z,15.80
2022-12-17T09:29:44.171Z,14.57
2022-12-17T09:32:29.513Z,15.20
2022-12-17T09:35:15.055Z,16.50
2022-12-17T09:38:00.516Z,17.20
2022-12-17T09:40:45.784Z,15.97
2022-12-17T09:43:42.340Z,14.23
2022-12-17T09:46:35.816Z,17.70
2022-12-17T09:49:30.676Z,16.57
2022-12-17T09:52:15.714Z,15.67
2022-12-17T09:55:05.120Z,21.40
2022-12-17T09:58:08.130Z,15.13
2022-12-17T10:01:00.718Z,17.27
2022-12-17T10:03:48.282Z,16.40
2022-12-17T10:06:37.605Z,17.07
2022-12-17T10:09:30.277Z,16.60
2022-12-17T10:12:18.734Z,14.13
2022-12-17T10:15:04.310Z,14.93
2022-12-17T10:17:51.229Z,15.70
2022-12-17T10:20:40.780Z,16.87
2022-12-17T10:23:26.364Z,13.10
2022-12-17T10:26:13.474Z,14.23
2022-12-17T10:28:59.602Z,13.87
2022-12-17T10:31:47.630Z,12.60
2022-12-17T10:34:36.541Z,15.93
2022-12-17T10:37:22.968Z,18.57
2022-12-17T10:40:14.303Z,16.33
2022-12-17T10:42:59.688Z,16.00
2022-12-17T10:45:47.268Z,17.43
2022-12-17T10:48:37.494Z,16.93
2022-12-17T10:51:33.421Z,17.83
2022-12-17T10:54:26.546Z,17.83
2022-12-17T10:57:11.994Z,20.77
2022-12-17T10:59:57.618Z,20.03
2022-12-17T11:02:46.154Z,15.63
2022-12-17T11:05:41.117Z,19.73
2022-12-17T11:08:30.302Z,18.37
2022-12-17T11:11:17.334Z,23.27
2022-12-17T11:14:05.457Z,18.40
2022-12-17T11:16:55.156Z,14.27
2022-12-17T11:20:05.753Z,13.70
2022-12-17T11:22:57.616Z,13.90
2022-12-17T11:25:57.740Z,17.37
2022-12-17T11:28:45.395Z,17.07
2022-12-17T11:31:52.549Z,12.63
2022-12-17T11:34:47.940Z,15.27
2022-12-17T11:37:37.046Z,12.73
2022-12-17T11:40:35.954Z,18.70
2022-12-17T11:43:33.117Z,12.67
2022-12-17T11:46:27.585Z,17.00
2022-12-17T11:49:21.747Z,15.20
2022-12-17T11:52:16.119Z,15.63
2022-12-17T11:55:10.150Z,15.10
2022-12-17T11:58:04.918Z,15.80
2022-12-17T12:01:00.638Z,14.83
2022-12-17T12:03:57.745Z,16.50
2022-12-17T12:06:54.333Z,14.30
2022-12-17T12:09:44.580Z,14.73
2022-12-17T12:12:52.672Z,15.83
2022-12-17T12:15:45.632Z,11.80
2022-12-17T12:18:46.159Z,14.63
2022-12-17T12:21:49.035Z,13.53
2022-12-17T12:24:49.356Z,11.57
2022-12-17T12:27:42.974Z,16.93
2022-12-17T12:30:33.908Z,17.17
2022-12-17T12:33:27.568Z,13.97
2022-12-17T12:36:19.460Z,17.37
2022-12-17T12:39:12.299Z,12.10
2022-12-17T12:42:06.085Z,15.47
2022-12-17T12:45:01.030Z,14.40
2022-12-17T12:47:57.330Z,14.03
2022-12-17T12:50:49.392Z,12.33
2022-12-17T12:53:47.990Z,13.43
2022-12-17T12:56:45.169Z,12.93
2022-12-17T12:59:40.993Z,17.43
2022-12-17T13:02:44.147Z,15.33
2022-12-17T13:05:34.111Z,13.03
2022-12-17T13:08:20.090Z,15.53
2022-12-17T13:10:49.636Z,14.27
2022-12-17T13:13:35.377Z,18.37
2022-12-17T13:16:08.567Z,14.87
2022-12-17T13:18:40.254Z,14.67
2022-12-17T13:21:25.802Z,16.87
2022-12-17T13:23:55.157Z,16.53
2022-12-17T13:26:31.088Z,16.40
2022-12-17T13:29:04.955Z,14.57
2022-12-17T13:31:45.967Z,14.13
2022-12-17T13:34:19.548Z,16.67
2022-12-17T13:36:55.611Z,15.67
2022-12-17T13:39:34.716Z,15.77
2022-12-17T13:42:02.634Z,18.47
2022-12-17T13:44:37.193Z,14.30
2022-12-17T13:47:05.401Z,14.77
2022-12-17T13:49:33.605Z,18.53
2022-12-17T13:52:08.005Z,13.60
2022-12-17T13:54:38.911Z,13.80
2022-12-17T13:57:11.293Z,12.73
2022-12-17T13:59:42.021Z,13.60
2022-12-17T14:02:25.803Z,14.03
2022-12-17T14:04:54.787Z,13.03
2022-12-17T14:07:23.207Z,12.50
2022-12-17T14:09:53.054Z,12.67
2022-12-17T14:12:24.771Z,13.33
2022-12-17T14:14:57.200Z,11.97
2022-12-17T14:17:27.501Z,14.00
2022-12-17T14:20:00.337Z,14.40
2022-12-17T14:22:35.606Z,11.73
2022-12-17T14:25:07.199Z,11.00
2022-12-17T14:27:37.377Z,10.57
2022-12-17T14:30:23.091Z,13.70
2022-12-17T14:32:53.501Z,11.93
2022-12-17T14:35:26.303Z,12.40
2022-12-17T14:37:54.668Z,10.03
2022-12-17T14:43:26.152Z,11.13
2022-12-17T14:46:15.218Z,11.83
2022-12-17T14:49:00.273Z,14.57
2022-12-17T14:51:30.851Z,15.30
2022-12-17T14:54:20.785Z,12.07
2022-12-17T14:56:49.848Z,15.80
2022-12-17T14:59:32.764Z,12.07
2022-12-17T15:02:04.066Z,11.20
2022-12-17T15:04:33.161Z,12.87
2022-12-17T15:07:01.009Z,15.63
2022-12-17T15:09:28.761Z,15.60
2022-12-17T15:11:57.250Z,19.27
2022-12-17T15:14:24.912Z,17.77
2022-12-17T15:16:55.771Z,14.80
2022-12-17T15:19:23.807Z,18.07
2022-12-17T15:21:51.646Z,18.03
2022-12-17T15:24:21.481Z,21.33
2022-12-17T15:26:49.920Z,14.40
2022-12-17T15:29:17.579Z,16.03
2022-12-17T15:31:46.046Z,14.53
2022-12-17T15:34:15.143Z,15.20
2022-12-17T15:36:42.924Z,13.73
2022-12-17T15:39:11.887Z,16.30
2022-12-17T15:41:57.280Z,17.10
2022-12-17T15:44:24.961Z,12.97
2022-12-17T15:46:52.594Z,19.43
2022-12-17T15:49:21.857Z,15.93
2022-12-17T15:51:49.490Z,19.87
2022-12-17T15:54:17.203Z,23.53
2022-12-17T15:56:53.154Z,39.77
2022-12-17T15:59:20.836Z,35.50
2022-12-17T16:01:48.659Z,37.97
2022-12-17T16:04:21.630Z,29.83
2022-12-17T16:06:54.002Z,41.13
2022-12-17T16:09:24.381Z,48.57
2022-12-17T16:11:54.149Z,49.90
2022-12-17T16:14:22.154Z,46.33
2022-12-17T16:16:50.462Z,33.33
2022-12-17T16:19:18.289Z,30.30
2022-12-17T16:21:47.126Z,22.63
2022-12-17T16:24:16.317Z,21.50
2022-12-17T16:26:44.066Z,24.27
2022-12-17T16:29:11.769Z,22.07
2022-12-17T16:31:39.532Z,22.60
2022-12-17T16:34:09.591Z,21.53
2022-12-17T16:36:37.774Z,18.90
2022-12-17T16:39:06.685Z,22.77
2022-12-17T16:41:35.954Z,22.17
2022-12-17T16:44:04.083Z,24.90
2022-12-17T16:46:33.632Z,27.73
2022-12-17T16:49:06.031Z,24.13
2022-12-17T16:51:33.864Z,24.50
2022-12-17T16:54:05.656Z,27.20
2022-12-17T16:56:39.671Z,33.03
2022-12-17T16:59:08.824Z,43.43
2022-12-17T17:01:37.872Z,36.13
2022-12-17T17:04:07.409Z,39.23
2022-12-17T17:06:40.023Z,36.17
2022-12-17T17:09:08.072Z,37.00
2022-12-17T17:11:37.347Z,42.03
2022-12-17T17:14:06.551Z,33.07
2022-12-17T17:16:35.112Z,34.83
2022-12-17T17:19:03.325Z,28.87
2022-12-17T17:21:32.542Z,23.50
2022-12-17T17:24:02.235Z,26.90
2022-12-17T17:26:31.879Z,24.03
2022-12-17T17:29:01.681Z,25.27
2022-12-17T17:32:01.053Z,25.03
2022-12-17T17:34:17.374Z,30.97
2022-12-17T17:36:45.050Z,26.53
2022-12-17T17:39:12.709Z,27.60
2022-12-17T17:41:40.353Z,27.37
2022-12-17T17:44:12.292Z,29.00
2022-12-17T17:46:40.946Z,26.73
2022-12-17T17:49:09.626Z,25.80
2022-12-17T17:54:28.769Z,23.37
2022-12-17T17:56:56.460Z,22.70
2022-12-17T17:59:32.855Z,24.10
2022-12-17T18:02:02.602Z,22.90
2022-12-17T18:04:30.710Z,27.77
2022-12-17T18:09:46.469Z,27.67
2022-12-17T18:12:40.142Z,27.80
2022-12-17T18:15:15.325Z,25.60
2022-12-17T18:17:44.229Z,31.00
2022-12-17T18:20:12.298Z,25.90
2022-12-17T18:22:39.970Z,22.20
2022-12-17T18:25:08.004Z,20.37
2022-12-17T18:27:35.659Z,19.97
2022-12-17T18:30:03.321Z,21.50
2022-12-17T18:32:32.359Z,22.27
2022-12-17T18:35:00.085Z,26.00
2022-12-17T18:37:27.811Z,24.03
2022-12-17T18:39:55.494Z,21.50
2022-12-17T18:42:40.679Z,22.97
2022-12-17T18:45:09.116Z,21.60
2022-12-17T18:47:38.138Z,25.17
2022-12-17T18:50:06.940Z,24.40
2022-12-17T18:52:34.664Z,26.20
2022-12-17T18:55:02.307Z,22.63
2022-12-17T18:57:30.312Z,24.53
2022-12-17T18:59:58.031Z,23.10
2022-12-17T19:02:25.720Z,29.03
2022-12-17T19:04:54.803Z,26.37
2022-12-17T19:07:22.425Z,32.60
2022-12-17T19:09:50.062Z,30.30
2022-12-17T19:12:17.711Z,24.00
2022-12-17T19:14:45.345Z,27.63
2022-12-17T19:17:12.985Z,22.80
2022-12-17T19:19:40.644Z,28.33
2022-12-17T19:22:09.959Z,29.60
2022-12-17T19:24:37.605Z,28.13
2022-12-17T19:27:05.300Z,29.37
2022-12-17T19:29:33.023Z,29.03
2022-12-17T19:32:00.697Z,25.53
2022-12-17T19:34:28.434Z,22.20
2022-12-17T19:36:56.096Z,18.63
2022-12-17T19:39:25.187Z,17.53
2022-12-17T19:41:52.874Z,21.70
2022-12-17T19:44:21.437Z,19.00
2022-12-17T19:46:49.275Z,15.67
2022-12-17T19:49:17.968Z,19.07
2022-12-17T19:51:46.074Z,18.17
2022-12-17T19:54:15.718Z,15.73
2022-12-17T19:56:45.691Z,32.47
2022-12-17T19:59:14.706Z,36.47
2022-12-17T20:01:44.714Z,45.23
2022-12-17T20:04:13.246Z,33.37
2022-12-17T20:06:41.063Z,31.37
2022-12-17T20:09:09.071Z,32.37
2022-12-17T20:11:36.783Z,33.63
2022-12-17T20:14:08.592Z,29.90
2022-12-17T20:16:38.215Z,27.27
2022-12-17T20:19:08.495Z,28.20
2022-12-17T20:21:36.196Z,27.57
2022-12-17T20:24:03.940Z,26.77
2022-12-17T20:26:32.212Z,29.23
2022-12-17T20:29:00.235Z,25.57
2022-12-17T20:31:29.460Z,27.97
2022-12-17T20:33:58.691Z,29.40
2022-12-17T20:36:26.321Z,29.87
2022-12-17T20:38:54.182Z,30.70
2022-12-17T20:41:24.946Z,29.90
2022-12-17T20:43:53.458Z,31.80
2022-12-17T20:46:22.693Z,26.27
2022-12-17T20:48:53.026Z,24.93
2022-12-17T20:51:24.317Z,22.40
2022-12-17T20:53:53.631Z,28.70
2022-12-17T20:56:23.590Z,28.03
2022-12-17T20:58:54.017Z,23.50
2022-12-17T21:01:23.814Z,23.83
2022-12-17T21:03:54.456Z,21.67
2022-12-17T21:06:24.799Z,20.90
2022-12-17T21:08:54.448Z,24.50
2022-12-17T21:11:24.548Z,22.17
2022-12-17T21:13:52.854Z,22.40
2022-12-17T21:16:23.647Z,22.73
2022-12-17T21:18:52.823Z,22.47
2022-12-17T21:21:23.103Z,22.60
2022-12-17T21:23:51.419Z,23.50
2022-12-17T21:26:21.163Z,22.57
2022-12-17T21:28:51.618Z,28.03
2022-12-17T21:31:21.142Z,25.27
2022-12-17T21:33:50.246Z,24.60
2022-12-17T21:36:22.174Z,23.77
2022-12-17T21:38:51.222Z,23.57
2022-12-17T21:41:21.170Z,23.93
2022-12-17T21:43:49.051Z,23.70
2022-12-17T21:46:16.790Z,20.17
2022-12-17T21:48:44.719Z,19.37
2022-12-17T21:51:15.045Z,18.77
2022-12-17T21:53:44.291Z,19.90
2022-12-17T21:56:14.311Z,15.63
2022-12-17T21:58:43.531Z,18.93
2022-12-17T22:01:17.825Z,17.13
2022-12-17T22:03:48.191Z,17.63
2022-12-17T22:06:24.391Z,17.43
2022-12-17T22:08:56.828Z,16.47
2022-12-17T22:11:28.538Z,19.60
2022-12-17T22:14:07.393Z,20.33
2022-12-17T22:16:39.102Z,18.80
2022-12-17T22:19:08.158Z,17.93
2022-12-17T22:21:36.161Z,17.90
2022-12-17T22:24:05.539Z,19.13
2022-12-17T22:26:34.414Z,19.40
2022-12-17T22:29:03.092Z,17.80
2022-12-17T22:31:48.242Z,17.17
2022-12-17T22:35:04.085Z,16.87
2022-12-17T22:37:04.821Z,17.23
2022-12-17T22:43:51.859Z,15.50
2022-12-17T22:44:34.917Z,16.70
2022-12-17T22:45:47.965Z,14.97
2022-12-17T22:48:16.269Z,17.07
2022-12-17T22:51:01.859Z,15.67
2022-12-17T22:53:31.924Z,16.80
2022-12-17T22:56:14.603Z,16.57
2022-12-17T22:58:54.831Z,16.03
2022-12-17T23:01:23.389Z,18.83
2022-12-17T23:03:54.811Z,15.47
2022-12-17T23:06:22.788Z,14.73
2022-12-17T23:08:50.814Z,15.33
2022-12-17T23:11:25.067Z,21.73
2022-12-17T23:13:53.261Z,16.60
2022-12-17T23:16:21.620Z,16.03
2022-12-17T23:18:50.662Z,14.37
2022-12-17T23:21:20.848Z,16.60
2022-12-17T23:23:48.779Z,19.50
2022-12-17T23:26:20.265Z,15.60
2022-12-17T23:28:48.339Z,16.40
2022-12-17T23:31:20.256Z,18.87
2022-12-17T23:33:48.435Z,16.50
2022-12-17T23:36:18.290Z,18.37
2022-12-17T23:38:46.795Z,26.03
2022-12-17T23:41:15.985Z,16.47
2022-12-17T23:43:45.604Z,17.37
2022-12-17T23:46:14.236Z,18.17
2022-12-17T23:48:45.642Z,16.73
2022-12-17T23:51:15.104Z,15.40
2022-12-17T23:53:43.454Z,14.13
2022-12-17T23:56:14.116Z,17.17
2022-12-17T23:58:43.929Z,20.93
